»·PEaware :: N54073 KSBP-KSDM

N54073 :: KSBP-KSDM

FLIGHT INFORMATION

Flight Status: Arrived
Operator: Privately registered:
United States
More flights under this callsign
Pilot: Anonymous 27411 (27411)
Aircraft: BEECH AIRCRAFT BARON
(BE58)
More flights by this aircraft type
Origin: KSBP San Luis Co Regl
United States
Destination: KSDM Brown Mun
United States
More flights between these airports :: More routes between these airports
Route: RZS V597 MZB
File this flight plan on PilotEdge
Remarks: Happy new year to all of you at pilotedge, thank you!
Altitude:
(Current/Filed)
9,000ft
Speed:
(Current/Filed)
175kts
Departed: 31-Dec-21 06:32 PM
Arrived: 31-Dec-21 08:12 PM
Distance/Time
Traveled:
242nm/1:40
Distance/Time
To Go:
Arrived

Flight Plot

Page will automatically refresh every two minutes.


Map Options




Map Legend


Flown Route
Filed Route
Departure Airport
Arrival Airport
Navaid (VOR, NDB)
Fix

Horizontal Profiles

Position Reports

Time Latitude Longitude Heading Altitude Ground
Speed
31-Dec-21 18:05 35.236513 -120.636905 125 216ft 0kts
31-Dec-21 18:06 35.236513 -120.636905 125 216ft 0kts
31-Dec-21 18:07 35.236513 -120.636905 125 216ft 0kts
31-Dec-21 18:08 35.236513 -120.636905 125 216ft 0kts
31-Dec-21 18:09 35.236513 -120.636905 125 216ft 0kts
31-Dec-21 18:10 35.236513 -120.636905 125 216ft 0kts
31-Dec-21 18:11 35.236513 -120.636905 125 216ft 0kts
31-Dec-21 18:12 35.236513 -120.636905 125 216ft 0kts
31-Dec-21 18:13 35.236513 -120.636905 125 216ft 0kts
31-Dec-21 18:14 35.236513 -120.636905 125 216ft 0kts
31-Dec-21 18:15 35.236513 -120.636905 125 216ft 0kts
31-Dec-21 18:16 35.236513 -120.636905 125 216ft 0kts
31-Dec-21 18:17 35.236513 -120.636905 125 216ft 0kts
31-Dec-21 18:18 35.236513 -120.636905 125 216ft 0kts
31-Dec-21 18:19 35.236513 -120.636905 125 216ft 0kts
31-Dec-21 18:20 35.236513 -120.636905 125 216ft 0kts
31-Dec-21 18:21 35.236513 -120.636905 125 216ft 0kts
31-Dec-21 18:22 35.236513 -120.636905 125 216ft 0kts
31-Dec-21 18:23 35.236430 -120.636763 125 216ft 0kts
31-Dec-21 18:24 35.235212 -120.635360 123 216ft 12kts
31-Dec-21 18:25 35.233140 -120.632221 274 216ft 0kts
31-Dec-21 18:26 35.233140 -120.632221 274 216ft 0kts
31-Dec-21 18:27 35.233140 -120.632221 274 216ft 0kts
31-Dec-21 18:28 35.233141 -120.632229 274 216ft 0kts
31-Dec-21 18:29 35.233149 -120.632400 238 216ft 0kts
31-Dec-21 18:30 35.233149 -120.632400 238 216ft 0kts
31-Dec-21 18:31 35.238632 -120.643380 307 292ft 110kts
31-Dec-21 18:32 35.260884 -120.682222 310 1787ft 128kts
31-Dec-21 18:33 35.279633 -120.719673 305 3096ft 129kts
31-Dec-21 18:34 35.297586 -120.755193 307 4354ft 126kts
31-Dec-21 18:35 35.313943 -120.790368 303 5639ft 115kts
31-Dec-21 18:36 35.331348 -120.824253 307 6695ft 115kts
31-Dec-21 18:37 35.316636 -120.859287 186 7062ft 186kts
31-Dec-21 18:38 35.280619 -120.821249 115 6992ft 179kts
31-Dec-21 18:39 35.249186 -120.774054 128 6982ft 186kts
31-Dec-21 18:40 35.217214 -120.723488 124 6959ft 186kts
31-Dec-21 18:41 35.181562 -120.678000 130 6960ft 189kts
31-Dec-21 18:42 35.145428 -120.632621 125 6847ft 191kts
31-Dec-21 18:44 35.111839 -120.587413 123 7014ft 178kts
31-Dec-21 18:45 35.078695 -120.539889 132 6923ft 190kts
31-Dec-21 18:46 35.041559 -120.489420 130 6948ft 187kts
31-Dec-21 18:47 35.006598 -120.442168 131 6948ft 193kts
31-Dec-21 18:48 34.972940 -120.392443 126 6801ft 200kts
31-Dec-21 18:49 34.938842 -120.342787 129 7001ft 199kts
31-Dec-21 18:50 34.900136 -120.294202 133 7089ft 206kts
31-Dec-21 18:51 34.859767 -120.242551 133 7056ft 207kts
31-Dec-21 18:52 34.819548 -120.187299 132 6855ft 216kts
31-Dec-21 18:53 34.780968 -120.134758 128 6943ft 211kts
31-Dec-21 18:54 34.744578 -120.079088 127 6954ft 206kts
31-Dec-21 18:55 34.708107 -120.026809 134 7470ft 181kts
31-Dec-21 18:56 34.673188 -119.985842 132 8298ft 179kts
31-Dec-21 18:57 34.639366 -119.941533 132 8797ft 193kts
31-Dec-21 18:58 34.600700 -119.893207 135 8876ft 207kts
31-Dec-21 18:59 34.562134 -119.840870 129 8732ft 219kts
31-Dec-21 19:00 34.521412 -119.788138 130 8750ft 212kts
31-Dec-21 19:01 34.496680 -119.726346 102 8780ft 212kts
31-Dec-21 19:02 34.481445 -119.659786 93 9016ft 203kts
31-Dec-21 19:03 34.474409 -119.590194 94 8876ft 210kts
31-Dec-21 19:04 34.464276 -119.521474 102 8914ft 211kts
31-Dec-21 19:05 34.452016 -119.451992 98 8916ft 207kts
31-Dec-21 19:05 34.441563 -119.394597 96 8813ft 208kts
31-Dec-21 19:07 34.429365 -119.315013 98 8823ft 207kts
31-Dec-21 19:08 34.419126 -119.246833 93 8852ft 205kts
31-Dec-21 19:09 34.406489 -119.179169 99 8921ft 203kts
31-Dec-21 19:09 34.397605 -119.121668 98 8820ft 206kts
31-Dec-21 19:10 34.385299 -119.053623 95 8745ft 210kts
31-Dec-21 19:11 34.375647 -118.985987 93 8802ft 209kts
31-Dec-21 19:13 34.356730 -118.908435 118 8745ft 210kts
31-Dec-21 19:14 34.340107 -118.843912 99 8877ft 204kts
31-Dec-21 19:14 34.323582 -118.789923 117 8835ft 203kts
31-Dec-21 19:15 34.305505 -118.725588 106 8814ft 205kts
31-Dec-21 19:16 34.283492 -118.662687 110 8797ft 207kts
31-Dec-21 19:18 34.257267 -118.589637 115 8888ft 200kts
31-Dec-21 19:18 34.238512 -118.539559 107 9182ft 188kts
31-Dec-21 19:19 34.216714 -118.478246 108 9040ft 203kts
31-Dec-21 19:20 34.194745 -118.417135 108 9167ft 198kts
31-Dec-21 19:21 34.174276 -118.353801 108 9048ft 202kts
31-Dec-21 19:22 34.158489 -118.289568 107 9010ft 200kts
31-Dec-21 19:23 34.114513 -118.252191 150 8947ft 204kts
31-Dec-21 19:24 34.067141 -118.217702 157 8991ft 200kts
31-Dec-21 19:25 34.018763 -118.184950 152 8894ft 202kts
31-Dec-21 19:26 33.970487 -118.155661 155 9004ft 195kts
31-Dec-21 19:27 33.921862 -118.127380 159 8887ft 197kts
31-Dec-21 19:28 33.873573 -118.099270 170 8861ft 191kts
31-Dec-21 19:29 33.826408 -118.072230 155 8921ft 197kts
31-Dec-21 19:30 33.779773 -118.039935 133 8955ft 198kts
31-Dec-21 19:31 33.745128 -117.988678 138 8953ft 198kts
31-Dec-21 19:32 33.701447 -117.949502 154 8917ft 200kts
31-Dec-21 19:33 33.657801 -117.907483 136 8180ft 198kts
31-Dec-21 19:34 33.618729 -117.860351 136 7418ft 197kts
31-Dec-21 19:35 33.583089 -117.815608 143 6728ft 196kts
31-Dec-21 19:36 33.542046 -117.768570 119 5965ft 199kts
31-Dec-21 19:37 33.506390 -117.722202 132 5603ft 183kts
31-Dec-21 19:38 33.468489 -117.679577 133 5040ft 191kts
31-Dec-21 19:39 33.430723 -117.634962 137 5124ft 194kts
31-Dec-21 19:40 33.392051 -117.589958 138 5148ft 191kts
31-Dec-21 19:41 33.353851 -117.546732 136 5090ft 178kts
31-Dec-21 19:42 33.315668 -117.506051 142 4966ft 179kts
31-Dec-21 19:43 33.280421 -117.461273 136 5090ft 195kts
31-Dec-21 19:44 33.242591 -117.418923 140 4928ft 182kts
31-Dec-21 19:45 33.197836 -117.398171 161 4805ft 179kts
31-Dec-21 19:46 33.153873 -117.380333 161 4971ft 160kts
31-Dec-21 19:47 33.113813 -117.357744 170 4955ft 158kts
31-Dec-21 19:48 33.072455 -117.338735 170 4616ft 183kts
31-Dec-21 19:49 33.025311 -117.346674 192 4077ft 183kts
31-Dec-21 19:50 32.976994 -117.356111 195 3106ft 172kts
31-Dec-21 19:51 32.928817 -117.366815 196 3046ft 181kts
31-Dec-21 19:52 32.878818 -117.380055 192 3118ft 185kts
31-Dec-21 19:53 32.830592 -117.392035 192 3026ft 168kts
31-Dec-21 19:54 32.785160 -117.400986 190 3044ft 165kts
31-Dec-21 19:55 32.739790 -117.410652 189 2945ft 169kts
31-Dec-21 19:56 32.695439 -117.419045 192 3063ft 164kts
31-Dec-21 19:57 32.651471 -117.429991 189 3094ft 160kts
31-Dec-21 19:58 32.611542 -117.421101 102 3070ft 159kts
31-Dec-21 19:59 32.613099 -117.372576 85 2995ft 142kts
31-Dec-21 20:00 32.615547 -117.326444 83 3021ft 144kts
31-Dec-21 20:01 32.617515 -117.279040 80 2952ft 148kts
31-Dec-21 20:02 32.622867 -117.233198 89 2997ft 146kts
31-Dec-21 20:03 32.609768 -117.191578 109 2070ft 114kts
31-Dec-21 20:04 32.598856 -117.154114 110 2854ft 128kts
31-Dec-21 20:05 32.584945 -117.113209 110 2474ft 132kts
31-Dec-21 20:06 32.579976 -117.071222 95 1884ft 132kts
31-Dec-21 20:07 32.576576 -117.029013 94 1234ft 121kts
31-Dec-21 20:08 32.584169 -116.989451 54 1142ft 130kts
31-Dec-21 20:09 32.579243 -116.949470 172 1104ft 126kts
31-Dec-21 20:10 32.572071 -116.973794 277 510ft 57kts
31-Dec-21 20:11 32.572166 -116.984128 183 517ft 0kts
31-Dec-21 20:12 32.571147 -116.984267 184 518ft 4kts
31-Dec-21 20:13 32.571377 -116.989345 274 521ft 17kts
31-Dec-21 20:14 32.571253 -116.991910 105 521ft 0kts

Navigation Log

Ident Type
Flight plan parsing failed, navigation log unavailable